Time;durP1;ratioP1;P1;durP2;ratioP2;P2;SDS_P1;SDS_P2;PMS_P1;PMS_P2;Temp;Humidity;BMP_temperature;BMP_pressure;BME280_temperature;BME280_humidity;BME280_pressure;Samples;Min_cycle;Max_cycle;Signal;HPM_P1;HPM_P2
2023/11/03 00:02:25;;;;;;;3.47;1.65;;;23.50;60.80;;;;;;10416901;28;20204;-54
2023/11/03 00:07:30;;;;;;;2.97;1.55;;;23.50;60.70;;;;;;10408733;28;20243;-48
2023/11/03 00:12:35;;;;;;;3.55;1.45;;;23.60;60.70;;;;;;10442350;28;20223;-47
2023/11/03 00:17:41;;;;;;;3.30;1.30;;;23.60;60.60;;;;;;10449362;28;20227;-52
2023/11/03 00:22:45;;;;;;;3.28;1.23;;;23.70;60.70;;;;;;10446948;28;20195;-50
2023/11/03 00:27:50;;;;;;;3.08;1.13;;;23.70;60.50;;;;;;10444616;28;20228;-48
2023/11/03 00:32:55;;;;;;;4.43;1.27;;;23.70;60.50;;;;;;10450364;28;20281;-56
2023/11/03 00:38:00;;;;;;;1.92;1.02;;;23.70;60.40;;;;;;10443885;28;20269;-47
2023/11/03 00:43:03;;;;;;;2.35;1.30;;;23.80;61.30;;;;;;10445307;28;20713;-50
2023/11/03 00:48:08;;;;;;;2.42;1.25;;;23.70;60.40;;;;;;10450136;28;20754;-49
2023/11/03 00:53:12;;;;;;;2.13;1.30;;;23.60;60.40;;;;;;10442828;28;20305;-53
2023/11/03 00:58:15;;;;;;;3.05;1.00;;;23.60;60.50;;;;;;10434103;28;20293;-50
2023/11/03 01:03:20;;;;;;;1.90;0.95;;;23.50;60.40;;;;;;10430760;28;20230;-50
2023/11/03 01:08:24;;;;;;;1.83;0.90;;;23.50;60.50;;;;;;10431119;28;20292;-51
2023/11/03 01:13:28;;;;;;;2.15;1.00;;;23.50;60.50;;;;;;10433515;28;20305;-51
2023/11/03 01:18:33;;;;;;;2.17;1.25;;;23.40;60.50;;;;;;10443107;28;20254;-54
2023/11/03 01:23:36;;;;;;;1.98;0.80;;;23.50;60.60;;;;;;10445849;28;20656;-54
2023/11/03 01:28:41;;;;;;;2.35;0.98;;;23.50;60.50;;;;;;10448282;28;20269;-53
2023/11/03 01:33:48;;;;;;;2.63;1.38;;;23.60;60.50;;;;;;10433923;28;20242;-51
2023/11/03 01:38:52;;;;;;;1.63;1.00;;;23.70;60.50;;;;;;10439770;28;20249;-51
2023/11/03 01:44:05;;;;;;;1.92;1.00;;;23.70;60.50;;;;;;10439519;28;20594;-52
2023/11/03 01:49:12;;;;;;;1.65;1.00;;;23.70;60.50;;;;;;10446958;28;20223;-45
2023/11/03 01:54:16;;;;;;;1.60;1.00;;;23.80;60.50;;;;;;10429034;28;20251;-50
2023/11/03 01:59:21;;;;;;;1.80;0.90;;;23.80;60.50;;;;;;10431436;28;20651;-59
2023/11/03 02:04:25;;;;;;;1.35;0.75;;;23.80;60.40;;;;;;10443587;28;20246;-55
2023/11/03 02:09:29;;;;;;;1.85;0.98;;;23.90;60.50;;;;;;10443228;28;20247;-55
2023/11/03 02:14:33;;;;;;;1.40;0.80;;;23.90;60.50;;;;;;10445329;28;20258;-57
2023/11/03 02:19:38;;;;;;;2.13;1.00;;;23.90;60.50;;;;;;10436888;28;20959;-59
2023/11/03 02:24:44;;;;;;;1.27;0.68;;;23.90;60.50;;;;;;10437266;28;20240;-57
2023/11/03 02:29:47;;;;;;;2.22;0.95;;;23.90;60.50;;;;;;10445604;28;20247;-60
2023/11/03 02:34:51;;;;;;;3.08;0.82;;;23.90;60.60;;;;;;10440123;28;20244;-56
2023/11/03 02:39:56;;;;;;;1.35;0.85;;;23.90;60.60;;;;;;10438270;28;20257;-52
2023/11/03 02:44:59;;;;;;;1.50;0.95;;;23.90;60.60;;;;;;10435758;28;20270;-54
2023/11/03 02:50:03;;;;;;;2.50;0.80;;;23.90;60.60;;;;;;10443487;28;20227;-59
2023/11/03 02:55:09;;;;;;;1.70;0.98;;;23.90;60.60;;;;;;10442923;28;20298;-57
2023/11/03 03:00:14;;;;;;;1.92;0.80;;;23.90;60.60;;;;;;10438786;28;20232;-52
2023/11/03 03:05:18;;;;;;;1.77;0.90;;;24.00;60.60;;;;;;10443776;28;20598;-64
2023/11/03 03:10:25;;;;;;;1.83;0.90;;;24.00;60.60;;;;;;10454499;28;20207;-63
2023/11/03 03:15:28;;;;;;;1.77;0.95;;;24.00;60.50;;;;;;10436807;28;20252;-61
2023/11/03 03:20:32;;;;;;;1.70;0.90;;;24.00;60.50;;;;;;10440440;28;20223;-60
2023/11/03 03:25:37;;;;;;;3.65;0.90;;;24.00;60.50;;;;;;10437668;28;20235;-61
2023/11/03 03:30:41;;;;;;;1.42;0.73;;;24.00;60.50;;;;;;10438388;28;20204;-58
2023/11/03 03:35:45;;;;;;;10.30;1.30;;;24.00;60.50;;;;;;10433194;28;20255;-57
2023/11/03 03:40:50;;;;;;;8.93;1.15;;;23.90;60.50;;;;;;10434909;28;20266;-52
2023/11/03 03:45:53;;;;;;;3.15;0.90;;;23.90;60.40;;;;;;10437546;28;20220;-55
2023/11/03 03:50:57;;;;;;;2.53;0.70;;;23.90;60.40;;;;;;10440000;28;20265;-52
2023/11/03 03:56:02;;;;;;;5.03;0.98;;;23.90;60.30;;;;;;10429957;28;20767;-53
2023/11/03 04:01:07;;;;;;;7.03;1.02;;;23.90;60.20;;;;;;10439000;28;20270;-49
2023/11/03 04:06:11;;;;;;;1.98;0.80;;;23.90;60.20;;;;;;10441236;28;20798;-52
2023/11/03 04:11:16;;;;;;;2.92;0.68;;;23.90;60.10;;;;;;10444847;28;20270;-55
2023/11/03 04:16:20;;;;;;;2.90;0.80;;;23.90;60.10;;;;;;10434399;28;20996;-48
2023/11/03 04:21:24;;;;;;;2.05;0.80;;;23.90;60.10;;;;;;10443500;28;20231;-58
2023/11/03 04:26:29;;;;;;;1.75;0.80;;;23.90;60.00;;;;;;10450497;28;20598;-59
2023/11/03 04:31:32;;;;;;;4.85;0.95;;;23.90;60.00;;;;;;10436072;28;20868;-58
2023/11/03 04:36:36;;;;;;;5.10;1.00;;;23.90;60.10;;;;;;10437807;28;20255;-57
2023/11/03 04:41:40;;;;;;;6.22;1.10;;;23.90;60.10;;;;;;10434369;28;20224;-57
2023/11/03 04:46:44;;;;;;;4.63;0.90;;;23.80;60.00;;;;;;10433860;28;20250;-57
2023/11/03 04:51:49;;;;;;;5.72;1.27;;;23.80;60.00;;;;;;10435940;28;20220;-55
2023/11/03 04:56:54;;;;;;;11.13;1.73;;;23.70;60.00;;;;;;10431406;28;20299;-48
2023/11/03 05:01:58;;;;;;;11.82;2.03;;;23.80;60.10;;;;;;10438367;28;21755;-47
2023/11/03 05:07:03;;;;;;;7.10;1.20;;;23.70;60.80;;;;;;10448225;28;20280;-46
2023/11/03 05:12:10;;;;;;;3.90;1.30;;;23.70;60.20;;;;;;10445013;28;20273;-46
2023/11/03 05:17:13;;;;;;;3.92;1.17;;;23.70;60.20;;;;;;10444258;28;20235;-48
2023/11/03 05:22:17;;;;;;;2.85;1.33;;;23.60;60.20;;;;;;10447330;28;20200;-47
2023/11/03 05:27:22;;;;;;;12.07;1.73;;;23.60;60.20;;;;;;10447402;28;20215;-47
2023/11/03 05:32:25;;;;;;;18.50;1.85;;;23.60;60.10;;;;;;10448113;28;20250;-46
2023/11/03 05:37:29;;;;;;;10.95;1.38;;;23.50;60.10;;;;;;10445315;28;20284;-46
2023/11/03 05:42:34;;;;;;;8.77;1.38;;;23.60;60.20;;;;;;10447198;28;20211;-46
2023/11/03 05:47:38;;;;;;;9.15;1.50;;;23.50;60.10;;;;;;10441457;28;20223;-47
2023/11/03 05:52:42;;;;;;;6.05;1.33;;;23.50;60.20;;;;;;10447485;28;20250;-47
2023/11/03 05:57:47;;;;;;;6.00;1.20;;;23.50;60.20;;;;;;10444306;28;20305;-48
2023/11/03 06:02:52;;;;;;;3.85;0.98;;;23.50;60.20;;;;;;10448188;28;20195;-46
2023/11/03 06:07:56;;;;;;;6.63;1.10;;;23.50;60.20;;;;;;10448003;28;20277;-47
2023/11/03 06:13:02;;;;;;;5.47;1.20;;;23.50;60.20;;;;;;10444099;28;20277;-49
2023/11/03 06:18:05;;;;;;;6.97;1.20;;;23.50;60.20;;;;;;10450697;28;20219;-46
2023/11/03 06:23:10;;;;;;;3.50;1.13;;;23.50;60.20;;;;;;10449157;28;20192;-47
2023/11/03 06:28:15;;;;;;;2.15;1.02;;;23.40;60.10;;;;;;10435584;28;20595;-47
2023/11/03 06:33:20;;;;;;;3.55;0.90;;;23.50;60.20;;;;;;10428249;28;20251;-48
2023/11/03 06:38:23;;;;;;;2.67;0.90;;;23.40;60.20;;;;;;10441351;28;20224;-48
2023/11/03 06:43:30;;;;;;;1.92;0.80;;;23.40;60.10;;;;;;10446431;28;20196;-48
2023/11/03 06:48:33;;;;;;;4.40;0.95;;;23.50;60.30;;;;;;10444840;28;20227;-47
2023/11/03 06:53:37;;;;;;;1.80;0.90;;;23.40;60.10;;;;;;10447318;28;20289;-49
2023/11/03 06:58:42;;;;;;;2.55;1.20;;;23.40;60.10;;;;;;10449930;28;20235;-46
2023/11/03 07:03:46;;;;;;;3.30;0.93;;;23.40;60.10;;;;;;10455337;28;20203;-47
2023/11/03 07:08:50;;;;;;;2.63;0.95;;;23.40;60.20;;;;;;10450848;28;20651;-48
2023/11/03 07:13:54;;;;;;;3.22;1.15;;;23.40;60.20;;;;;;10458401;28;20246;-47
2023/11/03 07:18:58;;;;;;;2.60;1.00;;;23.40;60.20;;;;;;10451986;28;20277;-47
2023/11/03 07:24:02;;;;;;;2.35;1.00;;;23.40;60.20;;;;;;10452771;28;20200;-46
2023/11/03 07:29:09;;;;;;;5.55;1.45;;;23.40;61.00;;;;;;10451328;28;20219;-55
2023/11/03 07:34:13;;;;;;;4.80;1.40;;;23.20;58.00;;;;;;10451179;28;20224;-53
2023/11/03 07:39:17;;;;;;;3.42;1.50;;;22.70;57.30;;;;;;10445996;28;20242;-53
2023/11/03 07:44:22;;;;;;;4.28;1.77;;;22.60;58.40;;;;;;10437089;28;20238;-55
2023/11/03 07:49:27;;;;;;;3.92;1.50;;;22.70;58.10;;;;;;10449254;28;20224;-54
2023/11/03 07:54:30;;;;;;;3.60;1.90;;;22.80;58.20;;;;;;10449130;28;20712;-51
2023/11/03 07:59:36;;;;;;;4.47;2.50;;;22.90;58.30;;;;;;10452565;28;20216;-54
2023/11/03 08:04:41;;;;;;;6.05;2.47;;;22.90;58.30;;;;;;10442314;28;20219;-55
2023/11/03 08:09:44;;;;;;;4.72;2.60;;;23.00;58.40;;;;;;10450860;28;20231;-55
2023/11/03 08:14:50;;;;;;;4.43;2.47;;;23.00;58.40;;;;;;10447378;28;20219;-56
2023/11/03 08:19:53;;;;;;;6.18;2.72;;;23.10;58.40;;;;;;10443612;28;20782;-56
2023/11/03 08:24:57;;;;;;;5.25;2.85;;;23.10;58.50;;;;;;10450434;28;20254;-57
2023/11/03 08:30:04;;;;;;;5.95;3.38;;;23.10;58.50;;;;;;10448187;28;20195;-57
2023/11/03 08:35:10;;;;;;;6.45;3.35;;;23.10;58.50;;;;;;10440040;28;20247;-58
2023/11/03 08:40:16;;;;;;;6.43;3.38;;;23.10;58.50;;;;;;10443393;28;20239;-56
2023/11/03 08:45:22;;;;;;;5.97;3.40;;;23.20;58.60;;;;;;10449185;28;20293;-58
2023/11/03 08:50:29;;;;;;;4.57;3.30;;;23.20;58.60;;;;;;10448162;28;20618;-56
2023/11/03 08:55:32;;;;;;;5.22;3.20;;;23.20;58.60;;;;;;10447936;28;20227;-57
2023/11/03 09:00:38;;;;;;;5.28;3.15;;;23.20;58.60;;;;;;10447965;28;20204;-57
2023/11/03 09:05:41;;;;;;;7.70;3.03;;;23.20;58.60;;;;;;10454318;28;20293;-57
2023/11/03 09:10:45;;;;;;;5.35;3.08;;;23.20;58.60;;;;;;10453055;28;20215;-58
2023/11/03 09:15:50;;;;;;;7.03;3.33;;;23.20;58.60;;;;;;10452758;28;20224;-55
2023/11/03 09:20:55;;;;;;;6.82;3.42;;;23.20;58.60;;;;;;10443901;28;20250;-58
2023/11/03 09:25:58;;;;;;;5.55;3.22;;;23.20;58.60;;;;;;10449978;28;20234;-56
2023/11/03 09:31:04;;;;;;;5.68;3.00;;;23.20;58.60;;;;;;10449267;28;20195;-56
2023/11/03 09:36:09;;;;;;;4.07;2.80;;;23.20;58.60;;;;;;10443556;28;20685;-56
2023/11/03 09:41:13;;;;;;;4.18;2.88;;;23.20;58.60;;;;;;10442053;28;20200;-57
2023/11/03 09:46:21;;;;;;;5.07;2.58;;;23.20;58.60;;;;;;10444086;28;20243;-58
2023/11/03 09:51:25;;;;;;;4.03;2.67;;;23.20;59.30;;;;;;10443034;28;20203;-56
2023/11/03 09:56:30;;;;;;;3.60;2.38;;;23.20;58.70;;;;;;10441774;28;20324;-56
2023/11/03 10:01:37;;;;;;;3.67;2.35;;;23.20;58.70;;;;;;10440657;28;20292;-57
2023/11/03 10:06:41;;;;;;;3.15;2.60;;;23.20;58.70;;;;;;10442771;28;20301;-58
2023/11/03 10:11:45;;;;;;;4.25;2.40;;;23.20;58.70;;;;;;10444423;28;20208;-58
2023/11/03 10:16:51;;;;;;;2.90;1.70;;;23.20;58.70;;;;;;10444754;28;20251;-56
2023/11/03 10:21:55;;;;;;;2.50;1.95;;;23.20;58.70;;;;;;10443244;28;20317;-56
2023/11/03 10:26:59;;;;;;;3.00;1.92;;;23.20;58.70;;;;;;10433123;28;20243;-58
2023/11/03 10:32:05;;;;;;;3.28;1.95;;;23.20;58.70;;;;;;10448671;28;20199;-58
2023/11/03 10:37:09;;;;;;;3.15;1.88;;;23.20;58.70;;;;;;10447755;28;20243;-55
2023/11/03 10:42:15;;;;;;;2.45;1.70;;;23.20;58.70;;;;;;10450011;28;20195;-62
2023/11/03 10:47:27;;;;;;;3.53;1.50;;;23.20;58.70;;;;;;10448904;28;20274;-57
2023/11/03 10:52:34;;;;;;;2.97;1.80;;;23.20;58.70;;;;;;10450204;28;20196;-54
2023/11/03 10:57:38;;;;;;;2.53;1.85;;;23.30;58.70;;;;;;10450436;28;20247;-56
2023/11/03 11:02:53;;;;;;;3.83;2.08;;;23.30;58.80;;;;;;10443192;28;20224;-57
2023/11/03 11:08:03;;;;;;;4.22;1.75;;;23.30;58.80;;;;;;10449293;28;20269;-56
2023/11/03 11:13:15;;;;;;;3.80;1.77;;;23.20;58.70;;;;;;10448659;28;20688;-58
2023/11/03 11:18:20;;;;;;;2.67;1.48;;;23.30;58.80;;;;;;10436225;28;21008;-57
2023/11/03 11:23:25;;;;;;;6.80;1.45;;;23.20;58.70;;;;;;10436527;28;20239;-57
2023/11/03 11:28:32;;;;;;;2.60;1.38;;;23.30;58.80;;;;;;10437523;28;20266;-57
2023/11/03 11:34:01;;;;;;;2.67;1.83;;;23.30;58.80;;;;;;10441998;28;20227;-58
2023/11/03 11:39:13;;;;;;;3.53;1.50;;;23.20;58.70;;;;;;10441908;28;20314;-57
2023/11/03 11:44:20;;;;;;;2.60;1.20;;;23.20;58.70;;;;;;10442015;28;20196;-58
2023/11/03 11:49:27;;;;;;;2.92;1.48;;;23.30;58.80;;;;;;10448705;28;20212;-59
2023/11/03 11:54:30;;;;;;;3.15;1.50;;;23.30;58.80;;;;;;10448798;28;20252;-59
2023/11/03 11:59:35;;;;;;;3.03;1.58;;;23.30;58.80;;;;;;10445776;28;20770;-57
2023/11/03 12:04:42;;;;;;;2.92;1.55;;;23.20;58.70;;;;;;10449152;28;20290;-57
2023/11/03 12:09:46;;;;;;;2.72;1.30;;;23.20;58.70;;;;;;10440598;28;20223;-54
2023/11/03 12:14:49;;;;;;;2.63;1.50;;;23.30;58.80;;;;;;10443266;28;20227;-56
2023/11/03 12:19:54;;;;;;;3.45;1.50;;;23.30;58.80;;;;;;10450663;28;20241;-57
2023/11/03 12:24:58;;;;;;;2.15;1.38;;;23.30;58.80;;;;;;10444194;28;20196;-57
2023/11/03 12:30:03;;;;;;;1.67;1.10;;;23.30;58.80;;;;;;10406848;28;20223;-57
2023/11/03 12:35:11;;;;;;;3.20;1.15;;;23.30;58.80;;;;;;10437816;28;20231;-58
2023/11/03 12:40:22;;;;;;;4.45;1.30;;;23.20;58.80;;;;;;10429057;28;20224;-58
2023/11/03 12:45:26;;;;;;;3.55;1.20;;;23.30;58.80;;;;;;10443415;28;20728;-57
2023/11/03 12:50:33;;;;;;;2.47;1.40;;;23.20;59.30;;;;;;10440688;28;20316;-57
2023/11/03 12:55:37;;;;;;;2.25;1.35;;;23.30;58.80;;;;;;10439788;28;20732;-56
2023/11/03 13:00:41;;;;;;;3.65;1.58;;;23.30;58.80;;;;;;10441561;28;20253;-59
2023/11/03 13:05:49;;;;;;;5.15;1.60;;;23.30;58.80;;;;;;10443901;28;20224;-58
2023/11/03 13:10:53;;;;;;;2.80;1.25;;;23.30;58.80;;;;;;10435301;28;20247;-58
2023/11/03 13:15:56;;;;;;;4.10;1.50;;;23.30;58.80;;;;;;10438038;28;20259;-58
2023/11/03 13:21:01;;;;;;;4.45;1.33;;;23.30;58.80;;;;;;10436302;28;20227;-58
2023/11/03 13:26:05;;;;;;;4.05;1.63;;;23.30;58.80;;;;;;10441951;28;20243;-58
2023/11/03 13:31:08;;;;;;;3.00;1.30;;;23.30;58.80;;;;;;10434016;28;20227;-58
2023/11/03 13:36:13;;;;;;;4.03;1.50;;;23.30;59.40;;;;;;10438675;28;20309;-59
2023/11/03 13:41:17;;;;;;;5.38;1.30;;;23.30;58.80;;;;;;10434525;28;20212;-58
2023/11/03 13:46:21;;;;;;;3.72;1.60;;;23.30;58.80;;;;;;10433575;28;20239;-59
2023/11/03 13:51:26;;;;;;;2.17;1.30;;;23.30;58.80;;;;;;10434261;28;20195;-54
2023/11/03 13:56:29;;;;;;;4.22;1.40;;;23.30;59.40;;;;;;10436736;28;20296;-55
2023/11/03 14:01:34;;;;;;;4.82;1.10;;;23.20;58.70;;;;;;10439157;28;20254;-56
2023/11/03 14:06:40;;;;;;;6.35;1.30;;;23.30;58.80;;;;;;10434132;28;20309;-58
2023/11/03 14:11:48;;;;;;;3.97;1.35;;;23.20;58.70;;;;;;10443568;28;20236;-52
2023/11/03 14:16:51;;;;;;;5.85;2.20;;;23.30;58.80;;;;;;10446815;28;20259;-53
2023/11/03 14:21:56;;;;;;;6.82;2.72;;;23.30;58.80;;;;;;10452742;28;20231;-53
2023/11/03 14:27:00;;;;;;;6.93;3.05;;;23.30;58.70;;;;;;10452096;28;20288;-60
2023/11/03 14:32:04;;;;;;;4.47;2.85;;;23.30;58.70;;;;;;10446940;28;20297;-57
2023/11/03 14:37:11;;;;;;;5.55;3.35;;;23.30;58.70;;;;;;10450305;28;20223;-59
2023/11/03 14:42:15;;;;;;;7.00;3.67;;;23.30;58.70;;;;;;10428681;28;20238;-56
2023/11/03 14:47:19;;;;;;;8.60;3.40;;;23.30;58.60;;;;;;10431549;28;20370;-55
2023/11/03 14:52:24;;;;;;;6.45;3.03;;;23.30;58.60;;;;;;10429945;28;20203;-51
2023/11/03 14:57:31;;;;;;;4.13;2.80;;;23.30;58.70;;;;;;10434700;28;20255;-53
2023/11/03 15:02:34;;;;;;;10.00;2.88;;;23.30;58.60;;;;;;10432059;28;20249;-56
2023/11/03 15:07:41;;;;;;;8.30;3.27;;;23.30;58.60;;;;;;10287673;28;20559;-58
2023/11/03 15:12:45;;;;;;;6.63;2.63;;;23.30;59.00;;;;;;10432759;28;20236;-53
2023/11/03 15:17:48;;;;;;;7.88;2.42;;;23.50;58.60;;;;;;10316779;28;20361;-53
2023/11/03 15:22:54;;;;;;;5.97;1.98;;;23.50;58.50;;;;;;10410286;28;20305;-55
2023/11/03 15:27:58;;;;;;;6.95;2.15;;;23.50;58.60;;;;;;10437702;28;20243;-57
2023/11/03 15:33:02;;;;;;;16.08;2.40;;;23.50;58.70;;;;;;10440089;28;20231;-49
2023/11/03 15:38:07;;;;;;;9.43;2.10;;;23.50;58.70;;;;;;10434527;28;20255;-61
2023/11/03 15:43:10;;;;;;;5.40;2.08;;;23.50;58.70;;;;;;10385986;28;20757;-53
2023/11/03 15:48:14;;;;;;;5.47;2.00;;;23.50;58.60;;;;;;10434174;28;20750;-56
2023/11/03 15:53:21;;;;;;;5.75;1.92;;;23.50;58.60;;;;;;10329035;28;20268;-60
2023/11/03 15:58:25;;;;;;;5.97;1.98;;;23.60;58.60;;;;;;10378975;28;20321;-50
2023/11/03 16:03:30;;;;;;;6.38;2.13;;;23.60;58.60;;;;;;10439986;28;20228;-48
2023/11/03 16:08:38;;;;;;;10.32;1.98;;;23.60;58.60;;;;;;10448406;28;20273;-49
2023/11/03 16:13:41;;;;;;;4.35;2.30;;;23.60;58.60;;;;;;10435788;28;20284;-58
2023/11/03 16:18:45;;;;;;;9.20;2.78;;;23.70;58.60;;;;;;10432791;28;20297;-56
2023/11/03 16:23:50;;;;;;;5.57;2.85;;;23.70;58.60;;;;;;10437092;28;20302;-50
2023/11/03 16:28:53;;;;;;;9.07;3.28;;;23.80;58.60;;;;;;10445398;28;21280;-56
2023/11/03 16:33:58;;;;;;;8.30;3.50;;;23.80;59.20;;;;;;10449568;28;20734;-51
2023/11/03 16:39:03;;;;;;;6.65;3.53;;;23.80;58.60;;;;;;10438964;28;20821;-55
2023/11/03 16:44:10;;;;;;;7.07;3.67;;;23.80;58.50;;;;;;10439685;28;20204;-51
2023/11/03 16:49:14;;;;;;;6.10;3.90;;;23.80;58.70;;;;;;10447609;28;20290;-51
2023/11/03 16:54:19;;;;;;;5.95;2.85;;;23.80;58.60;;;;;;10436813;28;20284;-56
2023/11/03 16:59:24;;;;;;;6.72;3.00;;;23.80;58.50;;;;;;10437113;28;20259;-50
2023/11/03 17:04:28;;;;;;;5.15;2.90;;;23.80;58.50;;;;;;10432863;28;20277;-52
2023/11/03 17:09:33;;;;;;;5.22;2.95;;;23.80;58.50;;;;;;10441518;28;20290;-53
2023/11/03 17:14:37;;;;;;;5.28;2.97;;;23.80;58.60;;;;;;10446540;28;20226;-54
2023/11/03 17:19:41;;;;;;;7.10;3.15;;;23.70;58.60;;;;;;10436305;28;20255;-53
2023/11/03 17:24:46;;;;;;;6.05;3.20;;;23.70;58.60;;;;;;10436530;28;20223;-52
2023/11/03 17:29:52;;;;;;;7.50;3.30;;;23.70;58.60;;;;;;10439826;28;20215;-54
2023/11/03 17:34:55;;;;;;;4.93;3.28;;;23.60;58.60;;;;;;10433572;28;20203;-52
2023/11/03 17:40:00;;;;;;;6.80;2.72;;;23.60;59.20;;;;;;10437271;28;20263;-53
2023/11/03 17:45:05;;;;;;;5.85;2.58;;;23.60;58.60;;;;;;10438039;28;20249;-56
2023/11/03 17:50:10;;;;;;;7.97;3.00;;;23.50;58.60;;;;;;10430655;28;20220;-50
2023/11/03 17:55:15;;;;;;;6.10;2.53;;;23.50;58.60;;;;;;10432479;28;20685;-51
2023/11/03 18:00:21;;;;;;;4.75;2.58;;;23.50;58.60;;;;;;10434567;28;20288;-54
2023/11/03 18:05:25;;;;;;;6.00;2.83;;;23.50;58.60;;;;;;10437101;28;20246;-53
2023/11/03 18:10:30;;;;;;;4.43;2.50;;;23.50;58.70;;;;;;10433518;28;20251;-57
2023/11/03 18:15:34;;;;;;;5.35;2.28;;;23.50;58.80;;;;;;10438858;28;20263;-51
2023/11/03 18:20:38;;;;;;;5.88;2.83;;;23.50;58.80;;;;;;10409614;28;20273;-53
2023/11/03 18:25:44;;;;;;;4.43;2.65;;;23.40;58.70;;;;;;10434636;28;21011;-52
2023/11/03 18:30:47;;;;;;;4.38;2.33;;;23.40;58.70;;;;;;10433438;28;20220;-50
2023/11/03 18:35:51;;;;;;;4.78;2.30;;;23.40;58.70;;;;;;10413797;28;20380;-50
2023/11/03 18:40:56;;;;;;;6.07;2.40;;;23.40;58.80;;;;;;10430551;28;20293;-54
2023/11/03 18:45:59;;;;;;;4.20;2.38;;;23.40;58.70;;;;;;10434375;28;20255;-51
2023/11/03 18:51:04;;;;;;;4.43;2.53;;;23.40;58.80;;;;;;10430140;28;20224;-52
2023/11/03 18:56:29;;;;;;;5.68;2.35;;;23.40;58.80;;;;;;10440025;28;20689;-50
2023/11/03 19:01:35;;;;;;;5.97;2.30;;;23.40;58.80;;;;;;10438939;28;20724;-52
2023/11/03 19:07:00;;;;;;;6.40;2.70;;;23.40;58.80;;;;;;10441828;28;20252;-52
2023/11/03 19:12:25;;;;;;;3.58;1.90;;;23.30;58.70;;;;;;10438514;28;20239;-55
2023/11/03 19:17:28;;;;;;;10.52;2.80;;;23.30;58.70;;;;;;10448475;28;20269;-52
2023/11/03 19:22:32;;;;;;;14.50;3.10;;;23.40;58.70;;;;;;10442729;28;20249;-51
2023/11/03 19:27:37;;;;;;;13.95;2.63;;;23.40;58.70;;;;;;10444938;28;20770;-51
2023/11/03 19:32:41;;;;;;;9.40;2.80;;;23.40;58.70;;;;;;10429366;28;20224;-51
2023/11/03 19:37:46;;;;;;;8.35;2.35;;;23.30;58.60;;;;;;10445858;28;20220;-51
2023/11/03 19:42:51;;;;;;;10.15;2.50;;;23.30;58.60;;;;;;10447399;28;20208;-52
2023/11/03 19:47:54;;;;;;;6.70;1.98;;;23.30;59.30;;;;;;10437045;28;20255;-52
2023/11/03 19:52:58;;;;;;;5.78;2.03;;;23.30;58.60;;;;;;10438000;28;20224;-51
2023/11/03 19:58:03;;;;;;;6.22;1.80;;;23.30;58.60;;;;;;10432223;28;20251;-51
2023/11/03 20:03:07;;;;;;;8.02;2.53;;;23.30;59.30;;;;;;10440922;28;20223;-51
2023/11/03 20:08:11;;;;;;;6.28;1.98;;;23.30;58.60;;;;;;10430902;28;20219;-50
2023/11/03 20:13:16;;;;;;;3.17;1.85;;;23.30;58.60;;;;;;10430941;28;20240;-50
2023/11/03 20:18:20;;;;;;;5.22;2.08;;;23.30;58.60;;;;;;10431466;28;20770;-50
2023/11/03 20:23:27;;;;;;;4.55;2.33;;;23.30;58.70;;;;;;10431654;28;20727;-49
2023/11/03 20:28:32;;;;;;;4.90;2.20;;;23.30;58.70;;;;;;10435406;28;20215;-51
2023/11/03 20:33:36;;;;;;;5.43;2.00;;;23.30;58.80;;;;;;10446616;28;20207;-52
2023/11/03 20:38:40;;;;;;;4.72;2.17;;;23.30;58.80;;;;;;10438974;28;20352;-52
2023/11/03 20:43:46;;;;;;;4.15;1.95;;;23.30;58.80;;;;;;10440488;28;20208;-52
2023/11/03 20:48:50;;;;;;;5.95;2.08;;;23.30;58.80;;;;;;10433138;28;20344;-52
2023/11/03 20:53:53;;;;;;;2.70;1.90;;;23.30;58.80;;;;;;10442727;28;20204;-50
2023/11/03 20:58:59;;;;;;;3.83;1.67;;;23.30;58.80;;;;;;10447988;28;20255;-50
2023/11/03 21:09:25;;;;;;;4.80;2.10;;;23.30;58.80;;;;;;10318441;28;20782;-50
2023/11/03 21:14:30;;;;;;;3.40;1.77;;;23.30;58.80;;;;;;10318779;28;20257;-50
2023/11/03 21:19:37;;;;;;;5.47;2.00;;;23.30;58.80;;;;;;10321582;28;20708;-50
2023/11/03 21:24:41;;;;;;;7.88;2.40;;;23.30;58.80;;;;;;10321117;28;20603;-52
2023/11/03 21:29:46;;;;;;;7.35;2.15;;;23.30;58.80;;;;;;10323938;28;20290;-52
2023/11/03 21:34:50;;;;;;;6.13;1.85;;;23.30;58.80;;;;;;10320855;28;21171;-51
2023/11/03 21:44:58;;;;;;;3.10;1.65;;;23.30;58.80;;;;;;10607840;22;20950;-51
2023/11/03 21:50:02;;;;;;;3.60;1.70;;;23.30;58.80;;;;;;10367160;28;20193;-52
2023/11/03 21:55:06;;;;;;;3.78;1.50;;;23.30;58.80;;;;;;10366098;28;20584;-51
2023/11/03 22:00:12;;;;;;;3.70;1.73;;;23.30;58.80;;;;;;10366792;28;20217;-52
2023/11/03 22:05:16;;;;;;;3.33;1.98;;;23.30;58.80;;;;;;10366973;28;20220;-52
2023/11/03 22:10:20;;;;;;;2.88;1.80;;;23.30;58.80;;;;;;10357885;28;20287;-52
2023/11/03 22:15:25;;;;;;;4.20;2.20;;;23.30;58.80;;;;;;10368345;28;20599;-51
2023/11/03 22:20:30;;;;;;;3.00;1.75;;;23.30;58.80;;;;;;10356551;28;20290;-52
2023/11/03 22:25:34;;;;;;;4.38;1.80;;;23.30;58.80;;;;;;10360059;28;20279;-51
2023/11/03 22:30:40;;;;;;;2.10;1.33;;;23.30;58.80;;;;;;10366588;28;20193;-52
2023/11/03 22:35:44;;;;;;;3.70;1.75;;;23.30;58.80;;;;;;10376354;28;20275;-53
2023/11/03 22:40:47;;;;;;;3.60;1.55;;;23.30;58.80;;;;;;10350186;28;20248;-54
2023/11/03 22:51:05;;;;;;;2.47;1.40;;;23.30;58.80;;;;;;10297072;28;20683;-51
2023/11/03 22:56:09;;;;;;;3.70;1.73;;;23.20;58.70;;;;;;10285085;28;20226;-50
2023/11/03 23:01:12;;;;;;;2.80;1.45;;;23.20;58.70;;;;;;10267475;28;20301;-52
2023/11/03 23:06:19;;;;;;;2.58;1.48;;;23.20;58.70;;;;;;10290062;28;20269;-54
2023/11/03 23:11:23;;;;;;;2.67;1.27;;;23.30;58.70;;;;;;10276592;28;20233;-51
2023/11/03 23:16:27;;;;;;;2.42;1.20;;;23.30;58.70;;;;;;10280853;28;20690;-52
2023/11/03 23:21:32;;;;;;;3.60;1.30;;;23.20;58.60;;;;;;10288379;28;20250;-51
2023/11/03 23:26:36;;;;;;;2.42;1.30;;;23.20;58.60;;;;;;10290783;28;20706;-51
2023/11/03 23:31:39;;;;;;;2.75;1.10;;;23.20;58.60;;;;;;10287124;28;20202;-51
2023/11/03 23:36:44;;;;;;;1.70;1.20;;;23.20;59.30;;;;;;10291615;28;20221;-51
2023/11/03 23:41:48;;;;;;;2.35;1.30;;;23.20;59.20;;;;;;10292342;28;20222;-52
2023/11/03 23:46:51;;;;;;;1.90;1.05;;;23.30;58.70;;;;;;10285317;28;20233;-52
2023/11/03 23:51:56;;;;;;;3.22;1.38;;;23.20;58.60;;;;;;10290033;28;20257;-52
2023/11/03 23:57:00;;;;;;;2.17;1.17;;;23.20;58.60;;;;;;10290377;28;20221;-51
